createdAt,value
2019-02-28T00:00:08.136Z,36.23
2019-02-28T00:02:39.827Z,39.47
2019-02-28T00:05:11.593Z,27.27
2019-02-28T00:07:44.427Z,41.40
2019-02-28T00:10:16.182Z,39.17
2019-02-28T00:12:48.567Z,40.93
2019-02-28T00:15:21.701Z,40.33
2019-02-28T00:17:53.563Z,38.97
2019-02-28T00:20:25.220Z,42.17
2019-02-28T00:22:56.865Z,38.33
2019-02-28T00:25:28.437Z,40.67
2019-02-28T00:27:59.960Z,39.30
2019-02-28T00:30:31.643Z,37.93
2019-02-28T00:33:03.554Z,40.00
2019-02-28T00:35:35.706Z,40.43
2019-02-28T00:38:07.282Z,40.73
2019-02-28T00:40:39.265Z,36.83
2019-02-28T00:43:10.910Z,32.83
2019-02-28T00:45:42.878Z,39.70
2019-02-28T00:48:14.531Z,40.17
2019-02-28T00:50:46.156Z,39.40
2019-02-28T00:53:17.748Z,39.90
2019-02-28T00:55:49.254Z,39.90
2019-02-28T00:58:20.510Z,38.83
2019-02-28T01:00:52.443Z,38.97
2019-02-28T01:03:26.836Z,35.33
2019-02-28T01:05:57.536Z,36.27
2019-02-28T01:08:29.002Z,39.30
2019-02-28T01:11:00.681Z,38.33
2019-02-28T01:13:32.450Z,35.73
2019-02-28T01:16:04.490Z,36.80
2019-02-28T01:18:36.306Z,29.70
2019-02-28T01:21:09.430Z,37.20
2019-02-28T01:23:40.983Z,34.63
2019-02-28T01:26:12.614Z,37.53
2019-02-28T01:28:44.072Z,29.07
2019-02-28T01:31:15.726Z,38.43
2019-02-28T01:33:48.050Z,32.53
2019-02-28T01:36:20.059Z,35.50
2019-02-28T01:38:51.682Z,32.67
2019-02-28T01:41:23.464Z,24.73
2019-02-28T01:43:55.030Z,35.77
2019-02-28T01:46:26.719Z,33.17
2019-02-28T01:48:58.543Z,34.87
2019-02-28T01:51:35.633Z,33.03
2019-02-28T01:54:03.703Z,33.63
2019-02-28T01:56:36.974Z,33.23
2019-02-28T01:59:08.432Z,33.90
2019-02-28T02:01:41.312Z,32.93
2019-02-28T02:04:13.225Z,32.97
2019-02-28T02:06:44.811Z,29.70
2019-02-28T02:09:16.846Z,29.43
2019-02-28T02:11:48.302Z,23.40
2019-02-28T02:14:19.955Z,31.47
2019-02-28T02:16:52.174Z,28.50
2019-02-28T02:19:23.711Z,30.20
2019-02-28T02:21:55.246Z,31.03
2019-02-28T02:24:27.877Z,28.83
2019-02-28T02:27:00.091Z,29.00
2019-02-28T02:29:32.367Z,27.73
2019-02-28T02:32:04.858Z,29.47
2019-02-28T02:34:36.806Z,28.87
2019-02-28T02:37:08.551Z,29.03
2019-02-28T02:39:40.127Z,30.67
2019-02-28T02:42:11.957Z,29.83
2019-02-28T02:44:45.809Z,31.00
2019-02-28T02:47:17.445Z,30.27
2019-02-28T02:49:56.127Z,29.50
2019-02-28T02:52:25.852Z,30.10
2019-02-28T02:54:55.465Z,30.13
2019-02-28T02:57:27.179Z,28.93
2019-02-28T02:59:58.813Z,29.00
2019-02-28T03:02:33.121Z,23.13
2019-02-28T03:05:03.697Z,29.00
2019-02-28T03:07:35.321Z,28.30
2019-02-28T03:10:06.935Z,27.60
2019-02-28T03:12:38.474Z,27.40
2019-02-28T03:15:11.306Z,28.23
2019-02-28T03:17:46.644Z,28.37
2019-02-28T03:20:16.124Z,26.77
2019-02-28T03:22:47.629Z,18.27
2019-02-28T03:25:19.240Z,25.37
2019-02-28T03:27:54.986Z,26.97
2019-02-28T03:30:31.850Z,25.47
2019-02-28T03:32:57.456Z,17.03
2019-02-28T03:35:40.006Z,24.87
2019-02-28T03:38:10.552Z,19.10
2019-02-28T03:40:40.240Z,26.07
2019-02-28T03:43:10.719Z,26.53
2019-02-28T03:45:42.469Z,26.00
2019-02-28T03:48:14.115Z,24.20
2019-02-28T03:50:45.870Z,24.30
2019-02-28T03:53:20.029Z,25.33
2019-02-28T03:55:50.771Z,22.73
2019-02-28T03:58:22.258Z,24.40
2019-02-28T04:00:53.845Z,23.80
2019-02-28T04:03:25.475Z,13.53
2019-02-28T04:06:03.354Z,25.13
2019-02-28T04:08:30.823Z,23.27
2019-02-28T04:11:02.697Z,21.07
2019-02-28T04:13:34.384Z,21.90
2019-02-28T04:16:08.932Z,22.20
2019-02-28T04:18:44.147Z,22.33
2019-02-28T04:21:12.632Z,23.23
2019-02-28T04:23:46.692Z,24.10
2019-02-28T04:26:18.281Z,21.10
2019-02-28T04:28:53.499Z,22.43
2019-02-28T04:31:23.393Z,21.97
2019-02-28T04:33:55.560Z,15.50
2019-02-28T04:36:27.565Z,18.33
2019-02-28T04:38:59.176Z,18.33
2019-02-28T04:41:32.826Z,20.13
2019-02-28T04:44:04.655Z,25.77
2019-02-28T04:46:36.417Z,21.67
2019-02-28T04:49:08.278Z,21.73
2019-02-28T04:51:40.149Z,18.77
2019-02-28T04:54:13.309Z,21.40
2019-02-28T04:56:45.578Z,19.83
2019-02-28T04:59:18.282Z,20.37
2019-02-28T05:01:50.190Z,12.20
2019-02-28T05:04:21.980Z,21.10
2019-02-28T05:06:55.158Z,20.23
2019-02-28T05:09:27.209Z,19.10
2019-02-28T05:11:58.845Z,20.23
2019-02-28T05:14:30.419Z,19.37
2019-02-28T05:17:01.980Z,20.77
2019-02-28T05:19:35.853Z,15.67
2019-02-28T05:22:06.875Z,21.53
2019-02-28T05:24:39.390Z,19.63
2019-02-28T05:27:12.205Z,17.80
2019-02-28T05:29:44.825Z,20.73
2019-02-28T05:32:16.902Z,22.17
2019-02-28T05:34:51.124Z,19.40
2019-02-28T05:37:22.024Z,20.07
2019-02-28T05:39:53.726Z,18.43
2019-02-28T05:42:25.387Z,19.17
2019-02-28T05:44:57.484Z,16.70
2019-02-28T05:47:29.400Z,20.90
2019-02-28T05:50:02.432Z,18.87
2019-02-28T05:52:34.611Z,20.40
2019-02-28T05:55:06.378Z,19.63
2019-02-28T05:57:39.440Z,18.33
2019-02-28T06:00:12.014Z,19.23
2019-02-28T06:02:44.369Z,14.97
2019-02-28T06:05:16.194Z,20.47
2019-02-28T06:07:47.835Z,12.17
2019-02-28T06:10:23.544Z,17.50
2019-02-28T06:12:52.920Z,18.57
2019-02-28T06:15:25.186Z,17.80
2019-02-28T06:17:56.980Z,15.87
2019-02-28T06:20:29.039Z,19.60
2019-02-28T06:23:00.838Z,19.33
2019-02-28T06:25:32.769Z,20.07
2019-02-28T06:28:07.016Z,17.57
2019-02-28T06:30:41.554Z,18.37
2019-02-28T06:33:12.604Z,20.33
2019-02-28T06:35:49.548Z,18.40
2019-02-28T06:38:20.510Z,19.17
2019-02-28T06:40:52.812Z,18.80
2019-02-28T06:43:30.007Z,19.10
2019-02-28T06:46:03.757Z,18.20
2019-02-28T06:48:35.426Z,17.30
2019-02-28T06:51:07.140Z,19.77
2019-02-28T06:53:40.926Z,20.07
2019-02-28T06:56:16.352Z,17.67
2019-02-28T06:58:48.264Z,16.97
2019-02-28T07:01:22.680Z,18.53
2019-02-28T07:03:53.849Z,17.70
2019-02-28T07:06:25.877Z,18.87
2019-02-28T07:09:02.126Z,19.17
2019-02-28T07:11:38.366Z,20.30
2019-02-28T07:14:13.783Z,17.93
2019-02-28T07:16:44.512Z,14.57
2019-02-28T07:19:16.311Z,19.37
2019-02-28T07:21:48.415Z,10.30
2019-02-28T07:24:20.278Z,19.03
2019-02-28T07:26:53.030Z,18.27
2019-02-28T07:29:24.971Z,16.60
2019-02-28T07:31:59.995Z,19.23
2019-02-28T07:34:30.457Z,13.80
2019-02-28T07:37:02.226Z,16.27
2019-02-28T07:39:36.531Z,15.43
2019-02-28T07:42:07.972Z,20.50
2019-02-28T07:44:40.193Z,15.23
2019-02-28T07:47:17.145Z,18.10
2019-02-28T07:49:47.257Z,17.73
2019-02-28T07:52:20.448Z,17.70
2019-02-28T07:54:55.527Z,17.57
2019-02-28T07:57:26.014Z,18.37
2019-02-28T07:59:57.516Z,20.37
2019-02-28T08:02:29.430Z,20.60
2019-02-28T08:05:02.984Z,15.63
2019-02-28T08:07:36.572Z,20.30
2019-02-28T08:10:12.768Z,20.13
2019-02-28T08:12:44.363Z,20.23
2019-02-28T08:15:22.283Z,22.23
2019-02-28T08:17:52.947Z,20.57
2019-02-28T08:20:24.614Z,18.87
2019-02-28T08:22:57.803Z,20.57
2019-02-28T08:25:29.964Z,22.60
2019-02-28T08:28:01.954Z,20.47
2019-02-28T08:30:33.743Z,19.20
2019-02-28T08:33:05.626Z,20.47
2019-02-28T08:35:37.810Z,33.53
2019-02-28T08:38:09.670Z,23.50
2019-02-28T08:40:43.036Z,32.37
2019-02-28T08:43:16.424Z,29.23
2019-02-28T08:45:48.415Z,20.97
2019-02-28T08:48:44.922Z,22.37
2019-02-28T08:51:17.166Z,19.37
2019-02-28T08:53:51.277Z,22.57
2019-02-28T08:56:22.332Z,20.57
2019-02-28T08:58:54.528Z,22.17
2019-02-28T09:01:26.577Z,20.00
2019-02-28T09:03:59.849Z,21.57
2019-02-28T09:06:32.030Z,23.40
2019-02-28T09:09:04.776Z,21.50
2019-02-28T09:11:38.519Z,22.03
2019-02-28T09:14:10.432Z,23.30
2019-02-28T09:16:44.806Z,20.97
2019-02-28T09:19:16.826Z,22.10
2019-02-28T09:21:49.377Z,22.80
2019-02-28T09:24:22.438Z,21.93
2019-02-28T09:26:54.488Z,23.37
2019-02-28T09:29:29.425Z,23.90
2019-02-28T09:32:01.666Z,25.60
2019-02-28T09:34:34.295Z,24.03
2019-02-28T09:37:06.081Z,22.53
2019-02-28T09:39:38.107Z,23.57
2019-02-28T09:42:14.853Z,23.10
2019-02-28T09:44:43.770Z,22.63
2019-02-28T09:47:15.910Z,25.97
2019-02-28T09:49:48.150Z,20.17
2019-02-28T09:52:20.047Z,24.50
2019-02-28T09:54:51.940Z,21.57
2019-02-28T09:57:23.713Z,24.30
2019-02-28T09:59:55.936Z,27.63
2019-02-28T10:02:27.926Z,22.97
2019-02-28T10:05:02.931Z,22.27
2019-02-28T10:07:34.498Z,23.23
2019-02-28T10:10:06.793Z,24.53
2019-02-28T10:12:39.451Z,28.17
2019-02-28T10:15:18.650Z,26.30
2019-02-28T10:17:50.469Z,23.80
2019-02-28T10:20:27.222Z,27.90
2019-02-28T10:22:59.616Z,25.70
2019-02-28T10:25:33.518Z,24.80
2019-02-28T10:28:05.578Z,26.90
2019-02-28T10:30:42.556Z,22.30
2019-02-28T10:33:17.396Z,25.03
2019-02-28T10:35:52.394Z,19.97
2019-02-28T10:38:29.511Z,25.03
2019-02-28T10:41:02.271Z,26.33
2019-02-28T10:43:34.532Z,17.90
2019-02-28T10:46:36.043Z,27.37
2019-02-28T10:49:07.766Z,27.43
2019-02-28T10:51:39.679Z,29.80
2019-02-28T10:54:16.629Z,17.17
2019-02-28T10:56:49.492Z,24.43
2019-02-28T10:59:24.239Z,23.13
2019-02-28T11:01:55.052Z,16.30
2019-02-28T11:04:27.613Z,25.73
2019-02-28T11:07:02.250Z,21.67
2019-02-28T11:09:33.211Z,21.67
2019-02-28T11:12:06.800Z,20.77
2019-02-28T11:14:39.897Z,26.40
2019-02-28T11:17:13.887Z,18.47
2019-02-28T11:19:48.503Z,24.07
2019-02-28T11:22:19.864Z,25.80
2019-02-28T11:24:51.778Z,25.17
2019-02-28T11:27:28.186Z,23.97
2019-02-28T11:30:00.247Z,26.00
2019-02-28T11:32:33.403Z,17.77
2019-02-28T11:35:05.441Z,28.23
2019-02-28T11:37:37.264Z,22.17
2019-02-28T11:40:09.938Z,25.27
2019-02-28T11:42:42.182Z,25.17
2019-02-28T11:45:18.610Z,23.47
2019-02-28T11:47:50.796Z,26.67
2019-02-28T11:50:22.882Z,25.90
2019-02-28T11:52:54.342Z,25.03
2019-02-28T11:55:27.176Z,22.03
2019-02-28T11:57:59.424Z,27.17
2019-02-28T12:00:32.579Z,26.70
2019-02-28T12:03:06.112Z,25.83
2019-02-28T12:05:38.342Z,26.50
2019-02-28T12:08:13.561Z,21.27
2019-02-28T12:10:45.482Z,28.07
2019-02-28T12:13:19.577Z,21.67
2019-02-28T12:15:58.783Z,18.47
2019-02-28T12:18:30.594Z,23.33
2019-02-28T12:21:04.846Z,25.50
2019-02-28T12:23:36.452Z,20.67
2019-02-28T12:26:08.278Z,24.07
2019-02-28T12:28:39.599Z,22.43
2019-02-28T12:31:15.937Z,17.73
2019-02-28T12:33:53.466Z,23.47
2019-02-28T12:36:24.042Z,18.33
2019-02-28T12:38:59.442Z,21.47
2019-02-28T12:41:30.072Z,23.07
2019-02-28T12:44:02.381Z,21.60
2019-02-28T12:46:34.172Z,21.83
2019-02-28T12:49:06.896Z,23.80
2019-02-28T12:51:39.707Z,19.63
2019-02-28T12:54:12.611Z,24.33
2019-02-28T12:56:45.149Z,21.90
2019-02-28T12:59:18.046Z,18.27
2019-02-28T13:01:49.926Z,25.20
2019-02-28T13:04:21.974Z,26.57
2019-02-28T13:06:55.582Z,23.70
2019-02-28T13:09:30.180Z,22.30
2019-02-28T13:12:08.044Z,17.57
2019-02-28T13:14:40.808Z,26.33
2019-02-28T13:17:13.651Z,25.17
2019-02-28T13:19:47.909Z,16.80
2019-02-28T13:22:23.627Z,20.60
2019-02-28T13:24:55.339Z,26.07
2019-02-28T13:27:27.331Z,26.57
2019-02-28T13:30:00.194Z,20.13
2019-02-28T13:32:33.762Z,24.73
2019-02-28T13:35:07.531Z,25.73
2019-02-28T13:37:56.245Z,26.63
2019-02-28T13:40:28.225Z,29.63
2019-02-28T13:43:02.153Z,29.00
2019-02-28T13:45:34.247Z,29.83
2019-02-28T13:48:06.429Z,23.27
2019-02-28T13:50:39.003Z,23.60
2019-02-28T13:53:18.990Z,29.50
2019-02-28T13:55:45.624Z,32.30
2019-02-28T13:58:21.581Z,21.17
2019-02-28T14:00:51.378Z,28.43
2019-02-28T14:03:24.782Z,30.13
2019-02-28T14:05:58.600Z,27.47
2019-02-28T14:08:30.014Z,29.67
2019-02-28T14:11:02.088Z,31.70
2019-02-28T14:13:34.679Z,31.70
2019-02-28T14:16:07.300Z,33.87
2019-02-28T14:18:42.592Z,28.93
2019-02-28T14:21:14.433Z,31.23
2019-02-28T14:23:47.991Z,26.20
2019-02-28T14:26:19.925Z,22.37
2019-02-28T14:28:51.754Z,31.60
2019-02-28T14:31:24.162Z,28.87
2019-02-28T14:33:56.041Z,28.20
2019-02-28T14:36:28.336Z,24.70
2019-02-28T14:39:04.700Z,31.63
2019-02-28T14:41:35.290Z,32.27
2019-02-28T14:44:08.681Z,28.33
2019-02-28T14:46:43.395Z,30.97
2019-02-28T14:49:21.865Z,28.40
2019-02-28T14:51:54.997Z,32.03
2019-02-28T14:54:27.078Z,26.33
2019-02-28T14:56:59.054Z,27.77
2019-02-28T14:59:33.881Z,30.90
2019-02-28T15:02:09.372Z,25.07
2019-02-28T15:04:42.485Z,30.97
2019-02-28T15:07:14.596Z,32.40
2019-02-28T15:09:48.441Z,31.00
2019-02-28T15:12:24.449Z,30.93
2019-02-28T15:14:54.694Z,24.83
2019-02-28T15:17:26.828Z,20.40
2019-02-28T15:20:01.093Z,25.43
2019-02-28T15:22:34.253Z,23.93
2019-02-28T15:25:06.346Z,22.37
2019-02-28T15:27:39.019Z,22.53
2019-02-28T15:30:19.018Z,21.03
2019-02-28T15:32:54.245Z,23.60
2019-02-28T15:35:24.604Z,23.77
2019-02-28T15:37:57.253Z,25.37
2019-02-28T15:40:31.504Z,28.57
2019-02-28T15:43:03.340Z,28.67
2019-02-28T15:45:36.484Z,27.63
2019-02-28T15:48:09.407Z,21.33
2019-02-28T15:50:41.509Z,25.97
2019-02-28T15:53:15.129Z,26.90
2019-02-28T15:55:50.962Z,26.43
2019-02-28T15:58:22.990Z,21.23
2019-02-28T16:00:56.647Z,27.73
2019-02-28T16:03:28.932Z,23.93
2019-02-28T16:06:01.176Z,27.80
2019-02-28T16:08:33.401Z,19.53
2019-02-28T16:11:06.272Z,30.93
2019-02-28T16:13:43.164Z,27.50
2019-02-28T16:16:16.214Z,25.80
2019-02-28T16:18:47.978Z,28.33
2019-02-28T16:21:20.412Z,31.53
2019-02-28T16:23:52.005Z,29.17
2019-02-28T16:26:23.921Z,28.90
2019-02-28T16:28:55.991Z,27.20
2019-02-28T16:31:27.659Z,30.33
2019-02-28T16:34:08.226Z,22.40
2019-02-28T16:36:50.529Z,26.17
2019-02-28T16:39:22.445Z,27.83
2019-02-28T16:41:54.281Z,28.03
2019-02-28T16:44:27.575Z,25.47
2019-02-28T16:47:03.513Z,27.73
2019-02-28T16:49:35.496Z,27.30
2019-02-28T16:52:07.533Z,27.47
2019-02-28T16:54:39.947Z,24.33
2019-02-28T16:57:13.141Z,26.90
2019-02-28T16:59:44.931Z,27.97
2019-02-28T17:02:21.981Z,27.47
2019-02-28T17:04:54.258Z,28.67
2019-02-28T17:07:27.256Z,29.47
2019-02-28T17:10:01.632Z,25.47
2019-02-28T17:12:52.985Z,28.17
2019-02-28T17:15:34.039Z,29.10
2019-02-28T17:18:13.561Z,28.93
2019-02-28T17:20:45.062Z,27.80
2019-02-28T17:23:18.829Z,24.83
2019-02-28T17:25:53.587Z,25.83
2019-02-28T17:28:51.544Z,29.97
2019-02-28T17:31:44.629Z,28.50
2019-02-28T17:34:23.755Z,30.03
2019-02-28T17:36:53.640Z,29.33
2019-02-28T17:39:27.989Z,28.63
2019-02-28T17:42:08.534Z,29.20
2019-02-28T17:45:06.206Z,23.27
2019-02-28T17:48:24.881Z,27.03
2019-02-28T17:51:31.048Z,26.50
2019-02-28T17:54:43.041Z,28.00
2019-02-28T17:58:01.340Z,27.43
2019-02-28T18:01:12.549Z,26.33
2019-02-28T18:04:08.157Z,28.30
2019-02-28T18:07:23.714Z,27.50
2019-02-28T18:10:47.739Z,29.73
2019-02-28T18:13:55.193Z,26.87
2019-02-28T18:17:02.292Z,27.33
2019-02-28T18:20:32.269Z,28.33
2019-02-28T18:24:00.110Z,22.53
2019-02-28T18:27:17.976Z,27.17
2019-02-28T18:30:25.278Z,27.30
2019-02-28T18:32:57.328Z,29.80
2019-02-28T18:35:32.510Z,29.17
2019-02-28T18:38:08.030Z,28.07
2019-02-28T18:40:45.236Z,27.87
2019-02-28T18:43:17.158Z,27.63
2019-02-28T18:45:53.559Z,29.13
2019-02-28T18:48:24.402Z,27.83
2019-02-28T18:50:56.358Z,21.73
2019-02-28T18:53:30.788Z,29.37
2019-02-28T18:56:08.782Z,29.43
2019-02-28T18:58:40.789Z,29.17
2019-02-28T19:01:14.314Z,26.87
2019-02-28T19:03:46.060Z,18.50
2019-02-28T19:06:17.856Z,25.77
2019-02-28T19:08:50.415Z,20.83
2019-02-28T19:11:25.583Z,12.07
2019-02-28T19:13:57.222Z,24.80
2019-02-28T19:16:29.928Z,25.53
2019-02-28T19:19:02.037Z,21.87
2019-02-28T19:21:33.708Z,17.90
2019-02-28T19:24:05.616Z,26.13
2019-02-28T19:26:37.536Z,17.27
2019-02-28T19:29:09.730Z,17.07
2019-02-28T19:31:43.800Z,17.27
2019-02-28T19:34:15.784Z,23.77
2019-02-28T19:36:47.694Z,23.43
2019-02-28T19:39:19.869Z,12.90
2019-02-28T19:41:53.032Z,12.53
2019-02-28T19:44:25.814Z,8.93
2019-02-28T19:46:57.707Z,8.77
2019-02-28T19:49:29.780Z,3.00
2019-02-28T19:52:03.497Z,2.27
2019-02-28T19:54:36.180Z,2.17
2019-02-28T19:57:07.989Z,2.33
2019-02-28T19:59:40.441Z,2.30
2019-02-28T20:02:13.862Z,2.70
2019-02-28T20:04:48.192Z,2.23
2019-02-28T20:07:20.266Z,4.33
2019-02-28T20:09:54.150Z,2.37
2019-02-28T20:12:27.412Z,2.37
2019-02-28T20:15:01.275Z,3.60
2019-02-28T20:17:36.660Z,3.13
2019-02-28T20:20:11.664Z,4.03
2019-02-28T20:22:46.208Z,3.13
2019-02-28T20:25:17.101Z,2.50
2019-02-28T20:27:49.468Z,3.40
2019-02-28T20:30:21.580Z,2.40
2019-02-28T20:32:53.883Z,3.00
2019-02-28T20:35:27.485Z,2.03
2019-02-28T20:38:02.507Z,3.00
2019-02-28T20:40:34.397Z,1.93
2019-02-28T20:43:07.454Z,2.20
2019-02-28T20:45:40.645Z,1.73
2019-02-28T20:48:14.312Z,1.70
2019-02-28T20:50:47.766Z,2.00
2019-02-28T20:53:19.484Z,2.60
2019-02-28T20:55:51.619Z,2.27
2019-02-28T20:58:23.808Z,1.70
2019-02-28T21:00:55.461Z,2.77
2019-02-28T21:03:27.278Z,4.00
2019-02-28T21:05:59.476Z,2.20
2019-02-28T21:08:31.340Z,2.33
2019-02-28T21:11:06.688Z,2.37
2019-02-28T21:13:40.363Z,2.30
2019-02-28T21:16:14.725Z,1.70
2019-02-28T21:18:47.558Z,1.93
2019-02-28T21:21:21.927Z,1.90
2019-02-28T21:23:58.041Z,2.17
2019-02-28T21:26:29.883Z,2.53
2019-02-28T21:29:04.448Z,2.37
2019-02-28T21:31:37.530Z,2.30
2019-02-28T21:34:11.416Z,2.50
2019-02-28T21:36:45.434Z,2.13
2019-02-28T21:39:17.641Z,2.70
2019-02-28T21:41:50.016Z,2.70
2019-02-28T21:44:21.982Z,2.40
2019-02-28T21:46:54.152Z,3.03
2019-02-28T21:49:25.994Z,4.70
2019-02-28T21:52:00.137Z,3.50
2019-02-28T21:54:32.004Z,3.67
2019-02-28T21:57:03.915Z,2.90
2019-02-28T21:59:41.508Z,5.77
2019-02-28T22:02:15.788Z,3.63
2019-02-28T22:04:50.716Z,4.33
2019-02-28T22:07:23.895Z,4.70
2019-02-28T22:09:55.662Z,6.77
2019-02-28T22:12:27.339Z,5.83
2019-02-28T22:14:59.183Z,6.90
2019-02-28T22:17:30.786Z,7.33
2019-02-28T22:20:03.754Z,8.40
2019-02-28T22:22:36.812Z,9.43
2019-02-28T22:25:09.260Z,10.40
2019-02-28T22:27:41.354Z,10.50
2019-02-28T22:30:53.184Z,14.30
2019-02-28T22:33:44.376Z,15.57
2019-02-28T22:36:23.137Z,20.13
2019-02-28T22:38:55.204Z,14.00
2019-02-28T22:41:29.729Z,20.27
2019-02-28T22:44:03.978Z,15.93
2019-02-28T22:46:35.599Z,21.77
2019-02-28T22:49:07.705Z,23.07
2019-02-28T22:51:39.484Z,22.37
2019-02-28T22:54:12.656Z,25.30
2019-02-28T22:56:44.624Z,24.17
2019-02-28T22:59:16.644Z,24.03
2019-02-28T23:01:48.560Z,23.77
2019-02-28T23:04:20.680Z,23.50
2019-02-28T23:06:54.345Z,24.80
2019-02-28T23:09:27.366Z,24.13
2019-02-28T23:11:59.202Z,25.30
2019-02-28T23:14:32.796Z,24.57
2019-02-28T23:17:04.594Z,21.63
2019-02-28T23:19:36.266Z,25.40
2019-02-28T23:22:09.039Z,25.80
2019-02-28T23:24:40.843Z,20.77
2019-02-28T23:27:15.370Z,21.53
2019-02-28T23:30:32.248Z,26.23
2019-02-28T23:33:10.961Z,25.37
2019-02-28T23:35:44.222Z,25.67
2019-02-28T23:38:16.440Z,25.53
2019-02-28T23:40:48.402Z,28.33
2019-02-28T23:43:20.278Z,28.43
2019-02-28T23:45:54.294Z,23.67
2019-02-28T23:48:25.520Z,28.53
2019-02-28T23:50:57.399Z,27.83
2019-02-28T23:53:29.136Z,23.50
2019-02-28T23:56:01.014Z,25.70
2019-02-28T23:58:45.248Z,20.83
